CA-0356 weather

CLOSED St. Leonard (Cyr) Airport
New Brunswick, Canada

Public forecast

Using degrees Celsius for public forecast. Weather courtesy of forecast.io.

Closest aviation weather report (METAR) to St. Leonard (Cyr) Airport

Report is more than 6 hours old.

Closest report is St Leonard Airport, 3.1 nm (5.7 km) ESE. Retrieved 2014/06/30 20:00 UTC (5 years ago):

CYSL 302000Z 28005KT 3SM HZ SCT030 30/17 A2982 RMK CU4 LAST OFFICIAL OBS/STATION CLOSING PERMANENTLY/ ANY OBS AFTER THIS IS NOT DONE BY CERTIFIED PERSON/ SLP097

Closest aviation forecast (TAF) to St. Leonard (Cyr) Airport

Closest forecast is Northern Aroostook Regional Airport, 17.9 nm (33.2 km) WNW. Retrieved 2019/10/23 06:39 UTC (3 hours ago):

TAF KFVE 230535Z 2306/2406 10005KT P6SM OVC080 FM230700 12010G18KT P6SM OVC020 FM231000 11012G22KT 3SM -RA BR OVC015 FM231400 10012G22KT 1SM RA BR OVC006 FM232000 28010G18KT 3SM -RA BR OVC004 FM232200 26005KT P6SM VCSH OVC005 FM240000 27006KT P6SM BKN012